sensor_id;sensor_type;location;lat;lon;timestamp;pressure;altitude;pressure_sealevel;temperature;humidity
46464;BME280;32161;48.148;-1.554;2023-04-15T00:01:58;100467.28;;;10.09;88.87
46464;BME280;32161;48.148;-1.554;2023-04-15T00:04:26;100471.25;;;9.95;88.59
46464;BME280;32161;48.148;-1.554;2023-04-15T00:06:53;100488.28;;;10.02;88.18
46464;BME280;32161;48.148;-1.554;2023-04-15T00:09:21;100487.81;;;10.05;87.10
46464;BME280;32161;48.148;-1.554;2023-04-15T00:11:50;100496.09;;;10.10;86.24
46464;BME280;32161;48.148;-1.554;2023-04-15T00:14:18;100498.38;;;9.83;86.89
46464;BME280;32161;48.148;-1.554;2023-04-15T00:16:46;100502.41;;;9.81;87.49
46464;BME280;32161;48.148;-1.554;2023-04-15T00:19:15;100497.34;;;9.84;86.59
46464;BME280;32161;48.148;-1.554;2023-04-15T00:21:42;100515.50;;;9.84;86.00
46464;BME280;32161;48.148;-1.554;2023-04-15T00:24:10;100513.31;;;10.04;84.66
46464;BME280;32161;48.148;-1.554;2023-04-15T00:26:38;100519.00;;;9.72;84.64
46464;BME280;32161;48.148;-1.554;2023-04-15T00:29:07;100519.50;;;9.81;84.53
46464;BME280;32161;48.148;-1.554;2023-04-15T00:31:35;100524.50;;;9.84;83.70
46464;BME280;32161;48.148;-1.554;2023-04-15T00:34:02;100518.19;;;9.84;82.87
46464;BME280;32161;48.148;-1.554;2023-04-15T00:36:30;100532.59;;;9.72;82.62
46464;BME280;32161;48.148;-1.554;2023-04-15T00:38:59;100530.72;;;9.54;83.09
46464;BME280;32161;48.148;-1.554;2023-04-15T00:41:26;100547.31;;;9.65;82.48
46464;BME280;32161;48.148;-1.554;2023-04-15T00:43:54;100537.53;;;9.75;81.45
46464;BME280;32161;48.148;-1.554;2023-04-15T00:46:23;100543.34;;;9.79;80.97
46464;BME280;32161;48.148;-1.554;2023-04-15T00:48:53;100531.94;;;9.89;80.24
46464;BME280;32161;48.148;-1.554;2023-04-15T00:51:21;100546.50;;;9.76;80.62
46464;BME280;32161;48.148;-1.554;2023-04-15T00:53:49;100546.81;;;9.68;80.85
46464;BME280;32161;48.148;-1.554;2023-04-15T00:56:19;100549.09;;;9.71;81.49
46464;BME280;32161;48.148;-1.554;2023-04-15T00:58:50;100556.47;;;9.64;81.69
46464;BME280;32161;48.148;-1.554;2023-04-15T01:01:19;100554.84;;;9.63;82.30
46464;BME280;32161;48.148;-1.554;2023-04-15T01:03:49;100554.63;;;9.46;82.81
46464;BME280;32161;48.148;-1.554;2023-04-15T01:06:17;100567.81;;;9.42;82.79
46464;BME280;32161;48.148;-1.554;2023-04-15T01:08:45;100566.69;;;9.50;82.67
46464;BME280;32161;48.148;-1.554;2023-04-15T01:11:13;100577.91;;;9.53;82.72
46464;BME280;32161;48.148;-1.554;2023-04-15T01:13:42;100586.19;;;9.40;82.81
46464;BME280;32161;48.148;-1.554;2023-04-15T01:16:10;100575.59;;;9.39;83.11
46464;BME280;32161;48.148;-1.554;2023-04-15T01:18:39;100574.50;;;9.03;83.70
46464;BME280;32161;48.148;-1.554;2023-04-15T01:21:09;100582.19;;;9.06;84.39
46464;BME280;32161;48.148;-1.554;2023-04-15T01:23:37;100576.94;;;9.29;82.64
46464;BME280;32161;48.148;-1.554;2023-04-15T01:26:07;100582.75;;;9.15;82.63
46464;BME280;32161;48.148;-1.554;2023-04-15T01:28:35;100578.28;;;9.20;81.65
46464;BME280;32161;48.148;-1.554;2023-04-15T01:31:08;100586.56;;;9.07;81.72
46464;BME280;32161;48.148;-1.554;2023-04-15T01:33:36;100583.41;;;9.28;80.60
46464;BME280;32161;48.148;-1.554;2023-04-15T01:36:05;100587.25;;;9.21;80.14
46464;BME280;32161;48.148;-1.554;2023-04-15T01:38:35;100577.31;;;9.15;80.02
46464;BME280;32161;48.148;-1.554;2023-04-15T01:41:03;100584.22;;;9.11;79.86
46464;BME280;32161;48.148;-1.554;2023-04-15T01:43:34;100583.09;;;9.18;79.19
46464;BME280;32161;48.148;-1.554;2023-04-15T01:46:02;100581.34;;;9.05;79.62
46464;BME280;32161;48.148;-1.554;2023-04-15T01:48:30;100586.75;;;8.87;80.12
46464;BME280;32161;48.148;-1.554;2023-04-15T01:50:58;100600.59;;;8.79;80.16
46464;BME280;32161;48.148;-1.554;2023-04-15T01:53:26;100600.56;;;9.04;79.36
46464;BME280;32161;48.148;-1.554;2023-04-15T01:55:54;100605.38;;;9.02;78.82
46464;BME280;32161;48.148;-1.554;2023-04-15T01:58:22;100599.19;;;8.95;80.00
46464;BME280;32161;48.148;-1.554;2023-04-15T02:00:51;100611.03;;;9.00;79.63
46464;BME280;32161;48.148;-1.554;2023-04-15T02:03:18;100604.91;;;8.87;80.48
46464;BME280;32161;48.148;-1.554;2023-04-15T02:05:46;100613.75;;;9.00;79.18
46464;BME280;32161;48.148;-1.554;2023-04-15T02:08:14;100608.00;;;8.90;79.22
46464;BME280;32161;48.148;-1.554;2023-04-15T02:10:42;100614.03;;;8.92;78.73
46464;BME280;32161;48.148;-1.554;2023-04-15T02:13:09;100620.34;;;8.86;79.31
46464;BME280;32161;48.148;-1.554;2023-04-15T02:15:37;100627.34;;;8.94;79.10
46464;BME280;32161;48.148;-1.554;2023-04-15T02:18:06;100627.97;;;8.96;78.82
46464;BME280;32161;48.148;-1.554;2023-04-15T02:20:33;100627.25;;;8.82;79.65
46464;BME280;32161;48.148;-1.554;2023-04-15T02:23:03;100624.50;;;8.89;78.90
46464;BME280;32161;48.148;-1.554;2023-04-15T02:25:32;100640.41;;;8.78;80.15
46464;BME280;32161;48.148;-1.554;2023-04-15T02:28:00;100637.31;;;8.75;79.60
46464;BME280;32161;48.148;-1.554;2023-04-15T02:30:27;100635.66;;;8.74;79.94
46464;BME280;32161;48.148;-1.554;2023-04-15T02:32:55;100648.78;;;8.77;80.10
46464;BME280;32161;48.148;-1.554;2023-04-15T02:35:24;100646.69;;;8.72;79.78
46464;BME280;32161;48.148;-1.554;2023-04-15T02:37:52;100659.69;;;8.64;79.74
46464;BME280;32161;48.148;-1.554;2023-04-15T02:40:20;100666.72;;;8.71;79.11
46464;BME280;32161;48.148;-1.554;2023-04-15T02:42:47;100667.94;;;8.75;79.78
46464;BME280;32161;48.148;-1.554;2023-04-15T02:45:15;100662.59;;;8.69;79.17
46464;BME280;32161;48.148;-1.554;2023-04-15T02:47:45;100669.72;;;8.63;79.55
46464;BME280;32161;48.148;-1.554;2023-04-15T02:50:13;100661.63;;;8.56;80.00
46464;BME280;32161;48.148;-1.554;2023-04-15T02:52:43;100670.56;;;8.57;80.17
46464;BME280;32161;48.148;-1.554;2023-04-15T02:55:11;100678.06;;;8.62;79.90
46464;BME280;32161;48.148;-1.554;2023-04-15T02:57:38;100690.19;;;8.52;80.35
46464;BME280;32161;48.148;-1.554;2023-04-15T03:00:09;100691.91;;;8.47;80.00
46464;BME280;32161;48.148;-1.554;2023-04-15T03:02:37;100691.53;;;8.30;81.42
46464;BME280;32161;48.148;-1.554;2023-04-15T03:05:10;100695.72;;;8.39;80.70
46464;BME280;32161;48.148;-1.554;2023-04-15T03:07:38;100693.41;;;8.36;80.76
46464;BME280;32161;48.148;-1.554;2023-04-15T03:10:08;100696.53;;;8.33;80.79
46464;BME280;32161;48.148;-1.554;2023-04-15T03:12:37;100709.66;;;8.36;81.24
46464;BME280;32161;48.148;-1.554;2023-04-15T03:15:07;100717.38;;;8.32;81.46
46464;BME280;32161;48.148;-1.554;2023-04-15T03:17:35;100720.88;;;8.46;81.22
46464;BME280;32161;48.148;-1.554;2023-04-15T03:20:04;100721.13;;;8.38;80.80
46464;BME280;32161;48.148;-1.554;2023-04-15T03:22:32;100714.66;;;8.39;81.24
46464;BME280;32161;48.148;-1.554;2023-04-15T03:25:00;100720.72;;;8.28;81.29
46464;BME280;32161;48.148;-1.554;2023-04-15T03:27:29;100733.03;;;8.24;81.83
46464;BME280;32161;48.148;-1.554;2023-04-15T03:29:57;100731.03;;;8.06;82.14
46464;BME280;32161;48.148;-1.554;2023-04-15T03:32:24;100732.47;;;8.08;82.23
46464;BME280;32161;48.148;-1.554;2023-04-15T03:34:52;100739.97;;;8.06;82.44
46464;BME280;32161;48.148;-1.554;2023-04-15T03:37:19;100743.09;;;8.10;82.13
46464;BME280;32161;48.148;-1.554;2023-04-15T03:39:47;100753.25;;;8.15;82.36
46464;BME280;32161;48.148;-1.554;2023-04-15T03:42:14;100756.44;;;8.12;82.40
46464;BME280;32161;48.148;-1.554;2023-04-15T03:44:43;100756.22;;;8.06;82.58
46464;BME280;32161;48.148;-1.554;2023-04-15T03:47:11;100750.63;;;7.95;82.62
46464;BME280;32161;48.148;-1.554;2023-04-15T03:49:39;100756.69;;;7.97;82.84
46464;BME280;32161;48.148;-1.554;2023-04-15T03:52:06;100751.50;;;7.89;82.75
46464;BME280;32161;48.148;-1.554;2023-04-15T03:54:34;100757.91;;;7.94;83.44
46464;BME280;32161;48.148;-1.554;2023-04-15T03:57:01;100763.97;;;7.96;82.36
46464;BME280;32161;48.148;-1.554;2023-04-15T03:59:29;100770.63;;;7.87;82.79
46464;BME280;32161;48.148;-1.554;2023-04-15T04:01:59;100775.44;;;7.78;83.16
46464;BME280;32161;48.148;-1.554;2023-04-15T04:04:26;100775.91;;;7.69;84.02
46464;BME280;32161;48.148;-1.554;2023-04-15T04:06:54;100778.59;;;7.69;84.06
46464;BME280;32161;48.148;-1.554;2023-04-15T04:09:21;100782.75;;;7.71;83.92
46464;BME280;32161;48.148;-1.554;2023-04-15T04:11:49;100793.78;;;7.76;84.27
46464;BME280;32161;48.148;-1.554;2023-04-15T04:14:17;100790.84;;;7.65;84.05
46464;BME280;32161;48.148;-1.554;2023-04-15T04:16:44;100800.63;;;7.79;83.45
46464;BME280;32161;48.148;-1.554;2023-04-15T04:19:13;100807.09;;;7.78;83.34
46464;BME280;32161;48.148;-1.554;2023-04-15T04:21:44;100809.59;;;7.73;84.11
46464;BME280;32161;48.148;-1.554;2023-04-15T04:24:12;100801.91;;;7.56;84.20
46464;BME280;32161;48.148;-1.554;2023-04-15T04:26:39;100816.66;;;7.61;84.78
46464;BME280;32161;48.148;-1.554;2023-04-15T04:29:07;100812.53;;;7.51;83.94
46464;BME280;32161;48.148;-1.554;2023-04-15T04:31:35;100819.59;;;7.46;85.07
46464;BME280;32161;48.148;-1.554;2023-04-15T04:34:02;100819.19;;;7.55;85.03
46464;BME280;32161;48.148;-1.554;2023-04-15T04:36:31;100815.00;;;7.59;84.41
46464;BME280;32161;48.148;-1.554;2023-04-15T04:38:59;100820.84;;;7.63;84.42
46464;BME280;32161;48.148;-1.554;2023-04-15T04:41:27;100822.28;;;7.59;84.23
46464;BME280;32161;48.148;-1.554;2023-04-15T04:43:54;100825.81;;;7.53;84.01
46464;BME280;32161;48.148;-1.554;2023-04-15T04:46:22;100830.84;;;7.43;84.53
46464;BME280;32161;48.148;-1.554;2023-04-15T04:48:50;100839.56;;;7.38;84.58
46464;BME280;32161;48.148;-1.554;2023-04-15T04:51:17;100832.47;;;7.17;85.86
46464;BME280;32161;48.148;-1.554;2023-04-15T04:53:47;100833.91;;;7.13;86.54
46464;BME280;32161;48.148;-1.554;2023-04-15T04:56:14;100838.28;;;7.07;87.09
46464;BME280;32161;48.148;-1.554;2023-04-15T04:58:42;100837.44;;;7.07;87.97
46464;BME280;32161;48.148;-1.554;2023-04-15T05:01:10;100855.53;;;7.00;87.83
46464;BME280;32161;48.148;-1.554;2023-04-15T05:03:38;100852.22;;;7.11;88.04
46464;BME280;32161;48.148;-1.554;2023-04-15T05:06:05;100862.78;;;7.06;88.08
46464;BME280;32161;48.148;-1.554;2023-04-15T05:08:34;100869.47;;;7.10;87.82
46464;BME280;32161;48.148;-1.554;2023-04-15T05:11:03;100863.44;;;7.15;87.70
46464;BME280;32161;48.148;-1.554;2023-04-15T05:13:32;100870.28;;;7.10;88.41
46464;BME280;32161;48.148;-1.554;2023-04-15T05:16:04;100869.28;;;7.25;88.30
46464;BME280;32161;48.148;-1.554;2023-04-15T05:18:32;100876.78;;;7.29;88.35
46464;BME280;32161;48.148;-1.554;2023-04-15T05:21:00;100876.78;;;7.36;87.66
46464;BME280;32161;48.148;-1.554;2023-04-15T05:23:28;100875.13;;;7.28;88.22
46464;BME280;32161;48.148;-1.554;2023-04-15T05:25:56;100883.25;;;7.35;88.85
46464;BME280;32161;48.148;-1.554;2023-04-15T05:28:25;100881.78;;;7.32;90.30
46464;BME280;32161;48.148;-1.554;2023-04-15T05:30:52;100893.44;;;7.40;89.71
46464;BME280;32161;48.148;-1.554;2023-04-15T05:33:20;100892.38;;;7.34;90.17
46464;BME280;32161;48.148;-1.554;2023-04-15T05:35:48;100895.06;;;7.34;90.36
46464;BME280;32161;48.148;-1.554;2023-04-15T05:38:15;100902.38;;;7.33;91.12
46464;BME280;32161;48.148;-1.554;2023-04-15T05:40:43;100909.03;;;7.31;91.92
46464;BME280;32161;48.148;-1.554;2023-04-15T05:43:11;100915.88;;;7.27;92.83
46464;BME280;32161;48.148;-1.554;2023-04-15T05:45:39;100919.88;;;7.44;92.48
46464;BME280;32161;48.148;-1.554;2023-04-15T05:48:07;100925.47;;;7.36;92.84
46464;BME280;32161;48.148;-1.554;2023-04-15T05:50:35;100937.75;;;7.45;92.93
46464;BME280;32161;48.148;-1.554;2023-04-15T05:53:02;100939.44;;;7.46;93.57
46464;BME280;32161;48.148;-1.554;2023-04-15T05:55:30;100940.25;;;7.47;92.93
46464;BME280;32161;48.148;-1.554;2023-04-15T05:57:57;100953.31;;;7.23;94.14
46464;BME280;32161;48.148;-1.554;2023-04-15T06:00:25;100949.81;;;7.49;94.59
46464;BME280;32161;48.148;-1.554;2023-04-15T06:02:55;100961.06;;;7.46;94.34
46464;BME280;32161;48.148;-1.554;2023-04-15T06:05:23;100964.19;;;7.56;94.70
46464;BME280;32161;48.148;-1.554;2023-04-15T06:07:51;100974.81;;;7.51;95.64
46464;BME280;32161;48.148;-1.554;2023-04-15T06:10:18;100979.16;;;7.52;94.80
46464;BME280;32161;48.148;-1.554;2023-04-15T06:12:46;100980.22;;;7.65;95.16
46464;BME280;32161;48.148;-1.554;2023-04-15T06:15:14;100982.34;;;7.76;95.72
46464;BME280;32161;48.148;-1.554;2023-04-15T06:17:42;100982.56;;;7.81;95.12
46464;BME280;32161;48.148;-1.554;2023-04-15T06:20:12;100993.38;;;7.88;95.51
46464;BME280;32161;48.148;-1.554;2023-04-15T06:22:39;100987.56;;;7.91;95.98
46464;BME280;32161;48.148;-1.554;2023-04-15T06:25:08;100999.25;;;8.04;96.10
46464;BME280;32161;48.148;-1.554;2023-04-15T06:27:36;101003.00;;;8.23;95.24
46464;BME280;32161;48.148;-1.554;2023-04-15T06:30:08;101002.16;;;8.29;95.46
46464;BME280;32161;48.148;-1.554;2023-04-15T06:32:38;100999.84;;;8.33;95.58
46464;BME280;32161;48.148;-1.554;2023-04-15T06:35:07;101013.03;;;8.49;95.96
46464;BME280;32161;48.148;-1.554;2023-04-15T06:37:36;101014.47;;;8.45;95.83
46464;BME280;32161;48.148;-1.554;2023-04-15T06:40:06;101011.56;;;8.47;97.19
46464;BME280;32161;48.148;-1.554;2023-04-15T06:42:35;101013.59;;;8.65;96.78
46464;BME280;32161;48.148;-1.554;2023-04-15T06:45:04;101014.06;;;8.55;97.37
46464;BME280;32161;48.148;-1.554;2023-04-15T06:47:32;101028.22;;;8.70;97.52
46464;BME280;32161;48.148;-1.554;2023-04-15T06:50:00;101027.38;;;8.56;97.85
46464;BME280;32161;48.148;-1.554;2023-04-15T06:52:29;101040.94;;;8.76;97.39
46464;BME280;32161;48.148;-1.554;2023-04-15T06:54:58;101036.13;;;8.72;97.87
46464;BME280;32161;48.148;-1.554;2023-04-15T06:57:26;101043.00;;;8.81;98.39
46464;BME280;32161;48.148;-1.554;2023-04-15T06:59:53;101047.56;;;8.87;99.53
46464;BME280;32161;48.148;-1.554;2023-04-15T07:02:22;101032.75;;;8.96;99.43
46464;BME280;32161;48.148;-1.554;2023-04-15T07:04:49;101025.53;;;9.35;97.60
46464;BME280;32161;48.148;-1.554;2023-04-15T07:07:17;101028.81;;;9.44;96.88
46464;BME280;32161;48.148;-1.554;2023-04-15T07:09:45;101038.66;;;9.38;97.25
46464;BME280;32161;48.148;-1.554;2023-04-15T07:12:14;101036.25;;;9.62;97.38
46464;BME280;32161;48.148;-1.554;2023-04-15T07:14:42;101042.78;;;9.47;97.66
46464;BME280;32161;48.148;-1.554;2023-04-15T07:17:10;101040.25;;;9.52;97.79
46464;BME280;32161;48.148;-1.554;2023-04-15T07:19:38;101037.06;;;9.69;97.55
46464;BME280;32161;48.148;-1.554;2023-04-15T07:22:06;101050.09;;;9.85;96.07
46464;BME280;32161;48.148;-1.554;2023-04-15T07:24:34;101044.94;;;9.77;96.43
46464;BME280;32161;48.148;-1.554;2023-04-15T07:27:01;101052.81;;;9.85;96.60
46464;BME280;32161;48.148;-1.554;2023-04-15T07:29:30;101063.38;;;10.00;95.01
46464;BME280;32161;48.148;-1.554;2023-04-15T07:31:58;101069.78;;;10.12;94.16
46464;BME280;32161;48.148;-1.554;2023-04-15T07:34:26;101067.25;;;10.11;94.90
46464;BME280;32161;48.148;-1.554;2023-04-15T07:36:54;101070.88;;;10.05;95.36
46464;BME280;32161;48.148;-1.554;2023-04-15T07:39:21;101073.16;;;10.08;94.25
46464;BME280;32161;48.148;-1.554;2023-04-15T07:41:49;101074.38;;;10.43;92.17
46464;BME280;32161;48.148;-1.554;2023-04-15T07:44:17;101079.38;;;10.15;93.07
46464;BME280;32161;48.148;-1.554;2023-04-15T07:46:46;101078.03;;;10.31;92.38
46464;BME280;32161;48.148;-1.554;2023-04-15T07:49:14;101085.69;;;10.40;91.72
46464;BME280;32161;48.148;-1.554;2023-04-15T07:51:41;101096.28;;;10.17;92.44
46464;BME280;32161;48.148;-1.554;2023-04-15T07:54:09;101098.81;;;10.50;93.59
46464;BME280;32161;48.148;-1.554;2023-04-15T07:56:37;101096.13;;;10.68;93.02
46464;BME280;32161;48.148;-1.554;2023-04-15T07:59:04;101097.97;;;10.49;93.05
46464;BME280;32161;48.148;-1.554;2023-04-15T08:01:32;101110.28;;;10.77;92.83
46464;BME280;32161;48.148;-1.554;2023-04-15T08:04:01;101099.41;;;10.77;92.02
46464;BME280;32161;48.148;-1.554;2023-04-15T08:06:29;101111.28;;;10.83;92.68
46464;BME280;32161;48.148;-1.554;2023-04-15T08:08:58;101107.16;;;10.98;90.98
46464;BME280;32161;48.148;-1.554;2023-04-15T08:11:26;101112.84;;;11.15;87.66
46464;BME280;32161;48.148;-1.554;2023-04-15T08:13:54;101121.31;;;11.25;86.90
46464;BME280;32161;48.148;-1.554;2023-04-15T08:16:23;101121.09;;;11.27;84.10
46464;BME280;32161;48.148;-1.554;2023-04-15T08:18:54;101134.41;;;11.35;82.97
46464;BME280;32161;48.148;-1.554;2023-04-15T08:21:24;101128.81;;;11.30;83.46
46464;BME280;32161;48.148;-1.554;2023-04-15T08:23:53;101139.72;;;11.30;83.38
46464;BME280;32161;48.148;-1.554;2023-04-15T08:26:21;101133.31;;;11.18;83.28
46464;BME280;32161;48.148;-1.554;2023-04-15T08:28:49;101142.97;;;10.95;85.59
46464;BME280;32161;48.148;-1.554;2023-04-15T08:31:18;101144.59;;;11.21;86.08
46464;BME280;32161;48.148;-1.554;2023-04-15T08:33:46;101155.03;;;11.24;84.17
46464;BME280;32161;48.148;-1.554;2023-04-15T08:36:13;101142.63;;;11.29;81.07
46464;BME280;32161;48.148;-1.554;2023-04-15T08:38:44;101158.00;;;11.78;75.80
46464;BME280;32161;48.148;-1.554;2023-04-15T08:41:19;101162.63;;;11.78;78.05
46464;BME280;32161;48.148;-1.554;2023-04-15T08:43:53;101162.66;;;11.96;74.77
46464;BME280;32161;48.148;-1.554;2023-04-15T08:46:23;101172.78;;;11.89;75.76
46464;BME280;32161;48.148;-1.554;2023-04-15T08:48:52;101176.09;;;11.91;76.39
46464;BME280;32161;48.148;-1.554;2023-04-15T08:51:23;101171.16;;;11.81;74.32
46464;BME280;32161;48.148;-1.554;2023-04-15T08:53:52;101177.03;;;11.85;75.45
46464;BME280;32161;48.148;-1.554;2023-04-15T08:56:24;101173.31;;;12.28;72.63
46464;BME280;32161;48.148;-1.554;2023-04-15T08:58:52;101188.84;;;12.27;70.58
46464;BME280;32161;48.148;-1.554;2023-04-15T09:01:19;101189.91;;;12.26;70.04
46464;BME280;32161;48.148;-1.554;2023-04-15T09:03:48;101194.63;;;12.19;70.78
46464;BME280;32161;48.148;-1.554;2023-04-15T09:06:17;101186.03;;;12.04;70.75
46464;BME280;32161;48.148;-1.554;2023-04-15T09:08:44;101203.38;;;12.21;71.81
46464;BME280;32161;48.148;-1.554;2023-04-15T09:11:13;101202.19;;;12.47;71.60
46464;BME280;32161;48.148;-1.554;2023-04-15T09:13:43;101207.66;;;12.47;69.63
46464;BME280;32161;48.148;-1.554;2023-04-15T09:16:10;101212.44;;;12.33;70.94
46464;BME280;32161;48.148;-1.554;2023-04-15T09:18:38;101204.56;;;12.43;69.40
46464;BME280;32161;48.148;-1.554;2023-04-15T09:21:08;101230.38;;;12.41;68.22
46464;BME280;32161;48.148;-1.554;2023-04-15T09:23:38;101224.09;;;12.40;71.39
46464;BME280;32161;48.148;-1.554;2023-04-15T09:26:06;101229.09;;;12.74;68.27
46464;BME280;32161;48.148;-1.554;2023-04-15T09:28:41;101236.78;;;13.07;67.73
46464;BME280;32161;48.148;-1.554;2023-04-15T09:31:08;101236.50;;;12.97;66.46
46464;BME280;32161;48.148;-1.554;2023-04-15T09:33:54;101239.25;;;12.66;68.26
46464;BME280;32161;48.148;-1.554;2023-04-15T09:36:22;101244.38;;;12.44;68.86
46464;BME280;32161;48.148;-1.554;2023-04-15T09:38:55;101250.25;;;12.60;70.46
46464;BME280;32161;48.148;-1.554;2023-04-15T09:41:24;101249.63;;;12.76;67.54
46464;BME280;32161;48.148;-1.554;2023-04-15T09:43:53;101249.38;;;12.78;68.57
46464;BME280;32161;48.148;-1.554;2023-04-15T09:46:20;101248.81;;;12.87;68.15
46464;BME280;32161;48.148;-1.554;2023-04-15T09:49:10;101248.16;;;13.15;67.35
46464;BME280;32161;48.148;-1.554;2023-04-15T09:51:38;101264.66;;;13.20;65.78
46464;BME280;32161;48.148;-1.554;2023-04-15T09:54:06;101258.97;;;13.22;67.35
46464;BME280;32161;48.148;-1.554;2023-04-15T09:56:35;101266.81;;;13.18;66.11
46464;BME280;32161;48.148;-1.554;2023-04-15T09:59:05;101264.31;;;12.75;67.52
46464;BME280;32161;48.148;-1.554;2023-04-15T10:01:34;101280.25;;;12.60;66.14
46464;BME280;32161;48.148;-1.554;2023-04-15T10:04:03;101275.97;;;12.82;66.31
46464;BME280;32161;48.148;-1.554;2023-04-15T10:06:31;101287.13;;;12.81;66.28
46464;BME280;32161;48.148;-1.554;2023-04-15T10:09:00;101295.84;;;12.71;65.17
46464;BME280;32161;48.148;-1.554;2023-04-15T10:11:29;101278.81;;;12.87;65.87
46464;BME280;32161;48.148;-1.554;2023-04-15T10:13:58;101281.34;;;13.01;68.99
46464;BME280;32161;48.148;-1.554;2023-04-15T10:16:27;101287.66;;;13.13;67.40
46464;BME280;32161;48.148;-1.554;2023-04-15T10:18:57;101291.09;;;13.38;69.19
46464;BME280;32161;48.148;-1.554;2023-04-15T10:21:27;101294.75;;;13.56;68.83
46464;BME280;32161;48.148;-1.554;2023-04-15T10:23:57;101297.03;;;13.71;64.88
46464;BME280;32161;48.148;-1.554;2023-04-15T10:26:28;101299.03;;;13.87;66.79
46464;BME280;32161;48.148;-1.554;2023-04-15T10:28:56;101303.31;;;14.06;64.93
46464;BME280;32161;48.148;-1.554;2023-04-15T10:31:24;101300.91;;;14.22;64.67
46464;BME280;32161;48.148;-1.554;2023-04-15T10:33:53;101306.41;;;13.98;68.50
46464;BME280;32161;48.148;-1.554;2023-04-15T10:36:22;101305.34;;;13.99;64.24
46464;BME280;32161;48.148;-1.554;2023-04-15T10:38:50;101308.31;;;13.98;65.52
46464;BME280;32161;48.148;-1.554;2023-04-15T10:41:19;101323.50;;;14.05;65.29
46464;BME280;32161;48.148;-1.554;2023-04-15T10:43:52;101312.34;;;13.95;65.00
46464;BME280;32161;48.148;-1.554;2023-04-15T10:46:26;101319.38;;;14.14;64.80
46464;BME280;32161;48.148;-1.554;2023-04-15T10:49:07;101329.22;;;14.04;63.12
46464;BME280;32161;48.148;-1.554;2023-04-15T10:51:38;101323.16;;;14.02;63.51
46464;BME280;32161;48.148;-1.554;2023-04-15T10:54:13;101326.25;;;14.05;64.48
46464;BME280;32161;48.148;-1.554;2023-04-15T10:56:41;101331.13;;;13.80;63.57
46464;BME280;32161;48.148;-1.554;2023-04-15T10:59:10;101334.69;;;13.57;62.95
46464;BME280;32161;48.148;-1.554;2023-04-15T11:01:56;101335.63;;;13.98;63.28
46464;BME280;32161;48.148;-1.554;2023-04-15T11:04:53;101331.97;;;13.80;64.66
46464;BME280;32161;48.148;-1.554;2023-04-15T11:07:36;101337.31;;;14.22;65.19
46464;BME280;32161;48.148;-1.554;2023-04-15T11:10:52;101352.28;;;13.96;62.32
46464;BME280;32161;48.148;-1.554;2023-04-15T11:13:25;101343.94;;;13.79;65.26
46464;BME280;32161;48.148;-1.554;2023-04-15T11:15:59;101353.47;;;13.88;63.77
46464;BME280;32161;48.148;-1.554;2023-04-15T11:18:34;101352.88;;;14.10;66.39
46464;BME280;32161;48.148;-1.554;2023-04-15T11:21:07;101344.50;;;14.52;62.66
46464;BME280;32161;48.148;-1.554;2023-04-15T11:23:37;101348.91;;;14.41;63.14
46464;BME280;32161;48.148;-1.554;2023-04-15T11:26:07;101352.69;;;14.63;61.58
46464;BME280;32161;48.148;-1.554;2023-04-15T11:28:38;101359.50;;;14.61;64.32
46464;BME280;32161;48.148;-1.554;2023-04-15T11:31:09;101358.97;;;14.64;59.18
46464;BME280;32161;48.148;-1.554;2023-04-15T11:33:52;101356.97;;;14.48;63.00
46464;BME280;32161;48.148;-1.554;2023-04-15T11:36:24;101360.09;;;14.51;61.66
46464;BME280;32161;48.148;-1.554;2023-04-15T11:38:58;101359.84;;;14.64;61.43
46464;BME280;32161;48.148;-1.554;2023-04-15T11:41:25;101369.31;;;14.74;63.78
46464;BME280;32161;48.148;-1.554;2023-04-15T11:43:53;101376.56;;;14.68;59.97
46464;BME280;32161;48.148;-1.554;2023-04-15T11:46:27;101377.22;;;14.58;58.68
46464;BME280;32161;48.148;-1.554;2023-04-15T11:48:55;101374.22;;;14.60;60.69
46464;BME280;32161;48.148;-1.554;2023-04-15T11:51:24;101384.53;;;14.81;59.82
46464;BME280;32161;48.148;-1.554;2023-04-15T11:53:52;101382.56;;;14.65;59.41
46464;BME280;32161;48.148;-1.554;2023-04-15T11:56:22;101389.06;;;14.64;55.84
46464;BME280;32161;48.148;-1.554;2023-04-15T11:58:52;101389.63;;;14.49;61.51
46464;BME280;32161;48.148;-1.554;2023-04-15T12:01:30;101388.97;;;14.59;60.25
46464;BME280;32161;48.148;-1.554;2023-04-15T12:03:58;101390.63;;;14.60;60.81
46464;BME280;32161;48.148;-1.554;2023-04-15T12:06:33;101385.41;;;14.47;61.90
46464;BME280;32161;48.148;-1.554;2023-04-15T12:09:08;101385.41;;;14.99;58.27
46464;BME280;32161;48.148;-1.554;2023-04-15T12:11:42;101401.13;;;14.39;60.97
46464;BME280;32161;48.148;-1.554;2023-04-15T12:14:23;101403.03;;;14.51;59.46
46464;BME280;32161;48.148;-1.554;2023-04-15T12:16:54;101412.31;;;14.50;59.22
46464;BME280;32161;48.148;-1.554;2023-04-15T12:19:25;101408.84;;;14.43;58.41
46464;BME280;32161;48.148;-1.554;2023-04-15T12:21:58;101408.03;;;14.54;60.72
46464;BME280;32161;48.148;-1.554;2023-04-15T12:24:26;101408.59;;;14.56;60.74
46464;BME280;32161;48.148;-1.554;2023-04-15T12:26:56;101408.91;;;14.83;61.91
46464;BME280;32161;48.148;-1.554;2023-04-15T12:29:26;101412.00;;;14.86;62.30
46464;BME280;32161;48.148;-1.554;2023-04-15T12:31:56;101405.44;;;14.99;58.99
46464;BME280;32161;48.148;-1.554;2023-04-15T12:34:29;101419.16;;;15.16;59.16
46464;BME280;32161;48.148;-1.554;2023-04-15T12:37:01;101414.84;;;14.92;59.02
46464;BME280;32161;48.148;-1.554;2023-04-15T12:39:33;101413.66;;;15.45;56.67
46464;BME280;32161;48.148;-1.554;2023-04-15T12:42:02;101417.38;;;15.10;63.41
46464;BME280;32161;48.148;-1.554;2023-04-15T12:44:30;101420.13;;;15.10;60.56
46464;BME280;32161;48.148;-1.554;2023-04-15T12:46:59;101412.81;;;15.27;59.78
46464;BME280;32161;48.148;-1.554;2023-04-15T12:49:27;101419.47;;;15.48;58.46
46464;BME280;32161;48.148;-1.554;2023-04-15T12:51:58;101424.28;;;15.41;58.62
46464;BME280;32161;48.148;-1.554;2023-04-15T12:54:26;101420.13;;;15.38;57.00
46464;BME280;32161;48.148;-1.554;2023-04-15T12:56:55;101426.88;;;15.48;57.45